Aeroporto :
LOGIN :

Iscrizione | Disclaimer

   EN    FR    IT 

 










Sommario :    VFR   VFR Marginale   IFR   IFR Intensivo   IFR Molto Intensivo
Visibilità : 
Base nubi : 
>= 8 km
>= 3000ft
5 / 8 km
1000 / 3000 ft
1500m / 5 km
500 / 1000 ft
800 / 1500m
200 / 500 ft
< 800m
< 200 ft
Simboli :   Temporali  Nebbia  Neve Forte  Precipitazioni Forti  Vento > 20 kt
SIGMETs :   Varie  Temporali  Ghiacco  Turbolenza  Onda orograficha  Ceneri Vulcaniche







- Altitudine del aeroporto : 1768 ft


LEHC - Huesca Pirineos

ULTIMO METAR :
  • 151300Z 26002KT 9999 SCT030 17/11 Q1008

METARs OBSOLETI :
  • 151230Z 35001KT 9999 SCT043 18/10 Q1008
  • 151200Z 00000KT 9999 FEW043 17/11 Q1008
  • 151130Z 33003KT 9999 FEW024 16/11 Q1008
  • 151100Z 01006KT 270V060 9999 FEW024 16/12 Q1008
  • 151030Z 25005KT 210V290 9999 SCT030 SCT044 15/10 Q1008

TAF TAF LEHC
Valido dal 15 a 09 ore il 16 a 09 ore UTC


150800Z 1509/1609 27007KT 9999 SCT035 TX19/1515Z TN12/1606Z
PROB40
TEMPO 1509/1512 RA BKN030
BECMG 1518/1520 VRB03KT
TEMPO 1520/1609 0200 BCFG BKN010
Nessun NOTAM noto per questo aeroporto.



MetMap, La meteo Aeronautica in un colpo d'occhio ! - Copyright ORBIFLY Dicembre 2007 - Disclaimer

ORBIFLY MET'MAP TEAM :

Programmazione e sviluppo : Alexandra Zaïnal
Concezione e sviluppo : Baudouin d'Aumeries
Co-Programmazione e sviluppo : Marc-Olivier Méhu
Supporto tecnico e logistico : Manuel Goepfert
Aiuto per la traduzione : Arnaldo La Scala

Contatto : metmap@orbifly.com




FONTI E CREDITI :

   NOAA